createdAt,value
2019-01-23T00:00:48.136Z,30.77
2019-01-23T00:03:52.056Z,31.33
2019-01-23T00:06:55.852Z,31.67
2019-01-23T00:09:59.743Z,28.57
2019-01-23T00:13:03.651Z,29.43
2019-01-23T00:16:07.581Z,29.13
2019-01-23T00:19:11.577Z,28.17
2019-01-23T00:22:15.515Z,32.07
2019-01-23T00:25:19.309Z,34.17
2019-01-23T00:28:23.163Z,31.07
2019-01-23T00:31:27.087Z,29.67
2019-01-23T00:34:30.934Z,35.37
2019-01-23T00:37:34.762Z,32.27
2019-01-23T00:40:38.566Z,34.37
2019-01-23T00:43:42.417Z,32.33
2019-01-23T00:46:46.264Z,33.30
2019-01-23T00:49:50.074Z,32.73
2019-01-23T00:52:53.935Z,36.73
2019-01-23T00:55:57.771Z,35.33
2019-01-23T00:59:01.622Z,33.97
2019-01-23T01:02:06.171Z,33.67
2019-01-23T01:05:10.432Z,34.73
2019-01-23T01:08:14.261Z,35.00
2019-01-23T01:11:18.207Z,36.93
2019-01-23T01:14:22.057Z,35.30
2019-01-23T01:17:25.951Z,37.00
2019-01-23T01:20:29.943Z,32.63
2019-01-23T01:23:33.851Z,40.67
2019-01-23T01:26:37.697Z,39.87
2019-01-23T01:29:41.531Z,36.67
2019-01-23T01:32:45.532Z,37.53
2019-01-23T01:35:49.398Z,36.40
2019-01-23T01:38:53.288Z,35.50
2019-01-23T01:41:57.134Z,35.03
2019-01-23T01:45:01.028Z,36.80
2019-01-23T01:48:05.365Z,35.93
2019-01-23T01:51:09.204Z,37.97
2019-01-23T01:54:13.025Z,37.83
2019-01-23T01:57:17.029Z,36.67
2019-01-23T02:00:22.987Z,35.67
2019-01-23T02:03:26.817Z,35.33
2019-01-23T02:06:30.785Z,36.20
2019-01-23T02:09:35.583Z,36.33
2019-01-23T02:12:39.597Z,36.23
2019-01-23T02:15:43.438Z,36.07
2019-01-23T02:18:47.315Z,38.03
2019-01-23T02:21:51.210Z,38.00
2019-01-23T02:24:55.039Z,34.67
2019-01-23T02:27:59.015Z,38.93
2019-01-23T02:31:02.926Z,37.90
2019-01-23T02:34:06.874Z,38.90
2019-01-23T02:37:10.725Z,37.10
2019-01-23T02:40:17.207Z,38.97
2019-01-23T02:43:21.120Z,37.50
2019-01-23T02:46:24.998Z,41.37
2019-01-23T02:49:28.782Z,42.37
2019-01-23T02:52:32.608Z,42.77
2019-01-23T02:55:36.416Z,39.70
2019-01-23T02:58:40.279Z,41.37
2019-01-23T03:01:44.124Z,41.13
2019-01-23T03:04:47.911Z,46.33
2019-01-23T03:07:51.828Z,44.33
2019-01-23T03:10:55.652Z,41.40
2019-01-23T03:13:59.573Z,44.53
2019-01-23T03:17:03.538Z,46.47
2019-01-23T03:20:09.152Z,44.33
2019-01-23T03:23:12.975Z,45.00
2019-01-23T03:26:16.815Z,46.80
2019-01-23T03:29:24.570Z,43.23
2019-01-23T03:32:26.209Z,47.03
2019-01-23T03:35:30.122Z,44.43
2019-01-23T03:38:34.121Z,44.70
2019-01-23T03:41:38.119Z,44.33
2019-01-23T03:44:41.998Z,46.17
2019-01-23T03:47:48.149Z,47.27
2019-01-23T03:50:51.917Z,46.67
2019-01-23T03:53:55.699Z,45.13
2019-01-23T03:56:59.626Z,45.57
2019-01-23T04:00:04.138Z,53.57
2019-01-23T04:03:08.142Z,47.63
2019-01-23T04:06:12.019Z,48.60
2019-01-23T04:09:15.840Z,43.40
2019-01-23T04:12:19.711Z,51.70
2019-01-23T04:15:23.592Z,48.60
2019-01-23T04:18:27.564Z,57.87
2019-01-23T04:21:31.444Z,50.23
2019-01-23T04:24:35.261Z,52.13
2019-01-23T04:27:39.141Z,50.87
2019-01-23T04:30:42.958Z,49.07
2019-01-23T04:33:46.763Z,51.33
2019-01-23T04:36:50.572Z,49.40
2019-01-23T04:39:54.370Z,52.87
2019-01-23T04:42:58.275Z,50.60
2019-01-23T04:46:02.097Z,54.83
2019-01-23T04:49:05.987Z,50.77
2019-01-23T04:52:15.194Z,52.83
2019-01-23T04:55:19.213Z,57.00
2019-01-23T04:58:23.017Z,50.00
2019-01-23T05:01:26.976Z,54.20
2019-01-23T05:04:30.864Z,55.70
2019-01-23T05:07:34.665Z,54.00
2019-01-23T05:10:38.490Z,53.13
2019-01-23T05:13:42.301Z,55.80
2019-01-23T05:16:46.123Z,54.70
2019-01-23T05:19:49.948Z,53.77
2019-01-23T05:22:53.901Z,46.67
2019-01-23T05:25:57.859Z,51.33
2019-01-23T05:29:01.697Z,51.97
2019-01-23T05:32:05.642Z,50.60
2019-01-23T05:35:09.635Z,54.93
2019-01-23T05:38:13.535Z,56.10
2019-01-23T05:41:17.363Z,54.43
2019-01-23T05:44:22.301Z,57.40
2019-01-23T05:47:26.172Z,54.00
2019-01-23T05:50:30.092Z,58.53
2019-01-23T05:53:33.901Z,57.23
2019-01-23T05:56:37.789Z,58.57
2019-01-23T05:59:41.624Z,52.47
2019-01-23T06:02:45.565Z,56.10
2019-01-23T06:05:49.520Z,56.20
2019-01-23T06:08:53.371Z,61.57
2019-01-23T06:11:57.169Z,61.63
2019-01-23T06:15:01.094Z,59.20
2019-01-23T06:18:05.054Z,53.73
2019-01-23T06:21:08.950Z,56.93
2019-01-23T06:24:12.817Z,59.47
2019-01-23T06:27:16.747Z,62.93
2019-01-23T06:30:23.079Z,61.30
2019-01-23T06:33:26.882Z,62.23
2019-01-23T06:36:30.790Z,59.80
2019-01-23T06:39:34.676Z,59.67
2019-01-23T06:42:38.678Z,58.70
2019-01-23T06:45:42.482Z,57.20
2019-01-23T06:48:46.302Z,61.77
2019-01-23T06:51:50.129Z,64.07
2019-01-23T06:54:53.956Z,59.20
2019-01-23T06:57:57.762Z,60.77
2019-01-23T07:01:01.592Z,57.93
2019-01-23T07:04:05.631Z,57.53
2019-01-23T07:07:09.458Z,58.57
2019-01-23T07:10:18.912Z,61.00
2019-01-23T07:13:22.787Z,62.33
2019-01-23T07:16:26.606Z,59.70
2019-01-23T07:19:30.434Z,60.03
2019-01-23T07:22:34.233Z,59.40
2019-01-23T07:25:38.120Z,63.63
2019-01-23T07:28:41.922Z,65.47
2019-01-23T07:31:45.823Z,66.83
2019-01-23T07:34:49.715Z,70.30
2019-01-23T07:37:53.628Z,65.37
2019-01-23T07:40:57.537Z,64.60
2019-01-23T07:44:01.378Z,66.80
2019-01-23T07:47:05.258Z,68.50
2019-01-23T07:50:10.402Z,73.80
2019-01-23T07:53:14.280Z,76.10
2019-01-23T07:56:18.108Z,70.37
2019-01-23T07:59:21.994Z,72.97
2019-01-23T08:02:25.801Z,76.53
2019-01-23T08:05:29.672Z,76.37
2019-01-23T08:08:33.553Z,72.97
2019-01-23T08:11:37.433Z,72.00
2019-01-23T08:14:42.205Z,70.10
2019-01-23T08:17:46.104Z,71.40
2019-01-23T08:20:50.343Z,82.27
2019-01-23T08:23:54.156Z,71.40
2019-01-23T08:26:58.047Z,74.83
2019-01-23T08:30:01.854Z,70.70
2019-01-23T08:33:06.043Z,74.67
2019-01-23T08:36:09.981Z,75.77
2019-01-23T08:39:13.908Z,77.50
2019-01-23T08:42:17.702Z,76.93
2019-01-23T08:45:21.700Z,68.73
2019-01-23T08:48:25.509Z,72.70
2019-01-23T08:51:29.333Z,78.00
2019-01-23T08:54:33.134Z,73.93
2019-01-23T08:57:36.957Z,75.83
2019-01-23T09:00:45.777Z,76.00
2019-01-23T09:03:46.473Z,75.00
2019-01-23T09:06:50.271Z,70.67
2019-01-23T09:09:54.085Z,73.50
2019-01-23T09:12:57.968Z,73.63
2019-01-23T09:16:01.857Z,75.23
2019-01-23T09:19:05.749Z,72.63
2019-01-23T09:22:09.622Z,80.83
2019-01-23T09:25:15.908Z,75.77
2019-01-23T09:28:19.731Z,78.33
2019-01-23T09:31:58.047Z,76.77
2019-01-23T09:35:22.580Z,76.60
2019-01-23T09:39:00.566Z,79.20
2019-01-23T09:42:41.850Z,83.97
2019-01-23T09:46:45.174Z,74.70
2019-01-23T09:50:02.069Z,77.30
2019-01-23T09:53:14.472Z,71.93
2019-01-23T09:56:19.361Z,71.70
2019-01-23T09:59:23.176Z,72.87
2019-01-23T10:02:26.985Z,80.87
2019-01-23T10:05:30.802Z,70.33
2019-01-23T10:08:34.696Z,79.30
2019-01-23T10:11:38.527Z,76.70
2019-01-23T10:14:42.381Z,76.13
2019-01-23T10:17:46.267Z,77.07
2019-01-23T10:20:50.200Z,69.10
2019-01-23T10:23:53.994Z,81.80
2019-01-23T10:26:57.963Z,69.53
2019-01-23T10:30:01.875Z,74.00
2019-01-23T10:33:05.817Z,68.83
2019-01-23T10:36:09.840Z,65.63
2019-01-23T10:39:13.657Z,78.63
2019-01-23T10:42:17.618Z,72.67
2019-01-23T10:45:21.577Z,72.40
2019-01-23T10:48:25.400Z,74.53
2019-01-23T10:51:29.296Z,70.97
2019-01-23T10:54:33.153Z,70.20
2019-01-23T10:57:37.115Z,66.10
2019-01-23T11:00:41.115Z,66.53
2019-01-23T11:03:44.988Z,64.23
2019-01-23T11:06:48.809Z,71.47
2019-01-23T11:09:52.695Z,64.13
2019-01-23T11:12:56.515Z,67.93
2019-01-23T11:16:00.482Z,64.47
2019-01-23T11:19:04.569Z,67.43
2019-01-23T11:22:08.447Z,67.07
2019-01-23T11:25:12.835Z,66.83
2019-01-23T11:28:16.791Z,69.67
2019-01-23T11:31:20.717Z,72.40
2019-01-23T11:34:24.660Z,69.33
2019-01-23T11:37:28.560Z,65.20
2019-01-23T11:40:32.607Z,62.90
2019-01-23T11:43:36.559Z,60.87
2019-01-23T11:46:40.581Z,57.50
2019-01-23T11:49:44.400Z,61.03
2019-01-23T11:52:49.409Z,54.90
2019-01-23T11:55:53.210Z,54.77
2019-01-23T11:58:57.023Z,58.97
2019-01-23T12:02:00.993Z,57.50
2019-01-23T12:05:06.084Z,52.27
2019-01-23T12:08:10.161Z,55.87
2019-01-23T12:11:14.091Z,50.57
2019-01-23T12:14:17.914Z,54.17
2019-01-23T12:17:21.731Z,58.90
2019-01-23T12:20:25.708Z,58.20
2019-01-23T12:23:29.533Z,58.53
2019-01-23T12:26:33.444Z,56.77
2019-01-23T12:29:37.286Z,57.33
2019-01-23T12:32:41.197Z,53.73
2019-01-23T12:35:45.087Z,55.97
2019-01-23T12:38:48.919Z,60.30
2019-01-23T12:41:52.925Z,59.10
2019-01-23T12:44:56.843Z,53.13
2019-01-23T12:48:00.848Z,52.50
2019-01-23T12:51:04.834Z,55.53
2019-01-23T12:54:08.747Z,58.83
2019-01-23T12:57:12.638Z,61.07
2019-01-23T13:00:24.802Z,58.97
2019-01-23T13:03:28.772Z,59.90
2019-01-23T13:06:32.837Z,57.40
2019-01-23T13:09:36.718Z,65.10
2019-01-23T13:12:40.806Z,58.10
2019-01-23T13:15:44.606Z,61.63
2019-01-23T13:18:48.421Z,61.43
2019-01-23T13:21:52.252Z,58.93
2019-01-23T13:24:56.053Z,63.27
2019-01-23T13:28:01.750Z,61.27
2019-01-23T13:31:05.719Z,61.50
2019-01-23T13:34:09.588Z,65.50
2019-01-23T13:37:13.496Z,57.40
2019-01-23T13:40:37.026Z,64.80
2019-01-23T13:43:40.843Z,57.00
2019-01-23T13:46:44.853Z,59.67
2019-01-23T13:49:48.662Z,62.63
2019-01-23T13:52:52.558Z,57.50
2019-01-23T13:55:56.507Z,63.30
2019-01-23T13:59:00.403Z,63.30
2019-01-23T14:02:04.387Z,60.17
2019-01-23T14:05:09.163Z,56.60
2019-01-23T14:08:13.129Z,59.20
2019-01-23T14:11:16.959Z,63.03
2019-01-23T14:14:20.774Z,58.67
2019-01-23T14:17:24.613Z,56.27
2019-01-23T14:20:28.803Z,55.80
2019-01-23T14:23:32.625Z,60.50
2019-01-23T14:26:36.427Z,65.33
2019-01-23T14:29:40.336Z,60.20
2019-01-23T14:32:44.211Z,68.57
2019-01-23T14:35:48.396Z,77.77
2019-01-23T14:38:52.210Z,65.17
2019-01-23T14:41:56.154Z,64.50
2019-01-23T14:44:59.963Z,75.40
2019-01-23T14:48:04.171Z,70.63
2019-01-23T14:51:08.041Z,66.03
2019-01-23T14:54:11.848Z,59.83
2019-01-23T14:57:15.757Z,63.77
2019-01-23T15:00:25.066Z,64.50
2019-01-23T15:03:28.913Z,62.00
2019-01-23T15:06:32.783Z,65.07
2019-01-23T15:09:36.605Z,66.87
2019-01-23T15:12:40.536Z,64.87
2019-01-23T15:15:44.437Z,64.13
2019-01-23T15:18:48.296Z,61.17
2019-01-23T15:21:52.116Z,64.33
2019-01-23T15:24:56.033Z,63.47
2019-01-23T15:27:59.972Z,62.63
2019-01-23T15:31:03.973Z,64.83
2019-01-23T15:34:08.162Z,74.97
2019-01-23T15:37:11.965Z,68.93
2019-01-23T15:40:18.941Z,64.87
2019-01-23T15:43:22.758Z,62.47
2019-01-23T15:46:26.643Z,74.63
2019-01-23T15:49:30.611Z,68.57
2019-01-23T15:52:34.395Z,69.13
2019-01-23T15:55:38.371Z,76.50
2019-01-23T15:58:42.238Z,69.97
2019-01-23T16:01:46.136Z,69.07
2019-01-23T16:04:49.986Z,62.57
2019-01-23T16:07:53.866Z,70.97
2019-01-23T16:10:57.771Z,73.83
2019-01-23T16:14:01.587Z,67.83
2019-01-23T16:17:05.597Z,78.20
2019-01-23T16:20:10.532Z,75.00
2019-01-23T16:23:14.493Z,72.27
2019-01-23T16:26:18.386Z,81.37
2019-01-23T16:29:22.231Z,86.40
2019-01-23T16:32:31.436Z,80.87
2019-01-23T16:35:38.494Z,74.10
2019-01-23T16:38:38.051Z,71.53
2019-01-23T16:41:41.878Z,68.77
2019-01-23T16:44:45.773Z,61.63
2019-01-23T16:47:49.858Z,67.13
2019-01-23T16:50:53.732Z,79.50
2019-01-23T16:53:57.559Z,99.83
2019-01-23T16:57:01.429Z,90.60
2019-01-23T17:00:07.700Z,103.07
2019-01-23T17:03:12.183Z,87.10
2019-01-23T17:06:16.097Z,72.27
2019-01-23T17:09:20.053Z,76.93
2019-01-23T17:12:23.881Z,78.43
2019-01-23T17:15:27.860Z,69.70
2019-01-23T17:18:31.749Z,71.13
2019-01-23T17:21:35.546Z,74.90
2019-01-23T17:24:39.374Z,68.93
2019-01-23T17:27:43.260Z,66.43
2019-01-23T17:30:47.166Z,75.17
2019-01-23T17:33:51.038Z,66.43
2019-01-23T17:36:54.953Z,69.40
2019-01-23T17:39:58.749Z,69.97
2019-01-23T17:43:02.675Z,69.80
2019-01-23T17:46:06.535Z,68.10
2019-01-23T17:49:10.431Z,68.77
2019-01-23T17:52:14.228Z,72.53
2019-01-23T17:55:21.385Z,67.10
2019-01-23T17:58:25.270Z,65.90
2019-01-23T18:01:29.229Z,63.80
2019-01-23T18:04:33.071Z,82.13
2019-01-23T18:07:37.070Z,82.60
2019-01-23T18:10:40.858Z,77.17
2019-01-23T18:13:44.665Z,79.60
2019-01-23T18:16:48.533Z,91.93
2019-01-23T18:19:52.357Z,74.33
2019-01-23T18:22:56.357Z,76.67
2019-01-23T18:26:00.238Z,69.63
2019-01-23T18:29:04.209Z,87.17
2019-01-23T18:32:09.930Z,77.23
2019-01-23T18:35:38.437Z,63.90
2019-01-23T18:38:57.266Z,64.50
2019-01-23T18:42:33.786Z,68.17
2019-01-23T18:46:22.611Z,70.67
2019-01-23T18:50:12.502Z,72.93
2019-01-23T18:53:16.487Z,69.77
2019-01-23T18:56:20.359Z,68.53
2019-01-23T18:59:24.166Z,86.10
2019-01-23T19:02:28.062Z,78.10
2019-01-23T19:05:31.950Z,78.70
2019-01-23T19:08:35.759Z,74.80
2019-01-23T19:11:39.647Z,74.87
2019-01-23T19:14:43.722Z,78.97
2019-01-23T19:17:47.665Z,76.00
2019-01-23T19:20:51.604Z,80.30
2019-01-23T19:23:55.498Z,76.47
2019-01-23T19:26:59.439Z,66.53
2019-01-23T19:30:09.183Z,68.23
2019-01-23T19:33:13.506Z,78.13
2019-01-23T19:36:15.446Z,71.17
2019-01-23T19:39:19.310Z,70.80
2019-01-23T19:42:23.132Z,69.67
2019-01-23T19:45:26.943Z,69.50
2019-01-23T19:48:30.839Z,78.27
2019-01-23T19:51:34.796Z,82.23
2019-01-23T19:54:38.681Z,81.87
2019-01-23T19:57:42.475Z,76.83
2019-01-23T20:00:46.356Z,74.47
2019-01-23T20:03:50.165Z,87.30
2019-01-23T20:06:54.039Z,78.60
2019-01-23T20:09:57.927Z,73.70
2019-01-23T20:13:01.797Z,75.37
2019-01-23T20:16:05.663Z,71.30
2019-01-23T20:19:12.997Z,76.60
2019-01-23T20:22:16.826Z,79.70
2019-01-23T20:25:22.825Z,81.97
2019-01-23T20:28:26.750Z,82.23
2019-01-23T20:31:30.565Z,80.97
2019-01-23T20:34:34.468Z,72.43
2019-01-23T20:37:38.275Z,81.17
2019-01-23T20:40:42.161Z,79.37
2019-01-23T20:43:45.968Z,84.00
2019-01-23T20:46:49.870Z,85.43
2019-01-23T20:49:53.692Z,86.23
2019-01-23T20:52:57.504Z,79.47
2019-01-23T20:56:01.338Z,89.13
2019-01-23T20:59:05.522Z,85.13
2019-01-23T21:02:09.473Z,92.40
2019-01-23T21:05:13.373Z,105.23
2019-01-23T21:08:17.224Z,88.13
2019-01-23T21:11:21.043Z,82.17
2019-01-23T21:14:24.950Z,96.73
2019-01-23T21:17:28.859Z,87.50
2019-01-23T21:20:35.198Z,92.53
2019-01-23T21:23:39.029Z,95.27
2019-01-23T21:26:42.903Z,78.43
2019-01-23T21:29:46.743Z,91.80
2019-01-23T21:32:50.538Z,84.37
2019-01-23T21:35:54.357Z,90.30
2019-01-23T21:38:58.179Z,85.03
2019-01-23T21:42:02.061Z,91.83
2019-01-23T21:45:07.406Z,91.80
2019-01-23T21:48:11.212Z,92.07
2019-01-23T21:51:15.134Z,105.70
2019-01-23T21:54:18.939Z,91.00
2019-01-23T21:57:22.831Z,87.70
2019-01-23T22:00:38.527Z,84.80
2019-01-23T22:03:49.057Z,115.33
2019-01-23T22:06:47.957Z,93.30
2019-01-23T22:09:51.856Z,81.60
2019-01-23T22:12:55.653Z,97.23
2019-01-23T22:15:59.639Z,105.67
2019-01-23T22:19:03.418Z,97.57
2019-01-23T22:22:08.046Z,101.10
2019-01-23T22:25:13.192Z,98.60
2019-01-23T22:28:17.005Z,97.93
2019-01-23T22:31:20.920Z,99.57
2019-01-23T22:34:24.768Z,90.70
2019-01-23T22:37:28.573Z,114.53
2019-01-23T22:40:32.380Z,100.03
2019-01-23T22:43:36.185Z,106.33
2019-01-23T22:46:40.016Z,112.63
2019-01-23T22:49:43.914Z,108.57
2019-01-23T22:52:48.078Z,120.47
2019-01-23T22:55:51.902Z,98.70
2019-01-23T22:58:55.734Z,110.23
2019-01-23T23:01:59.548Z,99.57
2019-01-23T23:05:03.433Z,97.20
2019-01-23T23:08:07.992Z,92.60
2019-01-23T23:11:11.900Z,101.90
2019-01-23T23:14:15.730Z,98.33
2019-01-23T23:17:19.603Z,89.67
2019-01-23T23:20:23.586Z,98.63
2019-01-23T23:23:27.474Z,94.50
2019-01-23T23:26:31.316Z,106.10
2019-01-23T23:29:35.205Z,100.10
2019-01-23T23:32:39.107Z,103.50
2019-01-23T23:35:42.915Z,107.77
2019-01-23T23:38:46.805Z,92.77
2019-01-23T23:41:50.618Z,115.33
2019-01-23T23:44:54.453Z,97.87
2019-01-23T23:47:58.285Z,103.03
2019-01-23T23:51:02.196Z,96.97
2019-01-23T23:54:06.175Z,102.23
2019-01-23T23:57:10.003Z,107.80
